logo
App data

I Expect You To Die

Play as a secret agent armed with telekinetic abilities on a mission to stop Zoraxis, a nefarious global weapons and pharmaceutical corporation.
Store | Hub | SteamDB | Site
Developer: Schell Games Publisher: Schell Games
Genre: Adventure
Languages: English
Tags: VR (149), Puzzle (142), Strategy (139), Action (136), Immersive (134), Simulation (125), Funny (120), Comedy (118), Retro (116), Adventure (115), Singleplayer (112), Cold War (110), First-Person (107), Stylized (103), Soundtrack (99), Indie (91), Short (87), Difficult (84), Open World (82), Hidden Object (80)
Category: Single-player, Steam Achievements, Steam Trading Cards
Release date: Apr 25, 2017
Price: $24.99
Old userscore: 94% Metascore: 77%
Owners: 100,000 .. 200,000
Followers: 7,085
Peak concurrent players yesterday: 22
YouTube stats: 6,503 views and 140 comments for top 50 videos uploaded last week, 1 new videos uploaded yesterday.
Playtime total: 02:31 (average) 02:24 (median)

Steam Spy is still in beta, so expect major bugs.

Owners data:

Access restricted.

This feature is only available to users with special access rights. Sorry.

If you want to proceed, you need to register or log in first and then back Steam Spy on Patreon. Look for Indie or Pro pledge.

Don't forget to use the same email as on Steam Spy!

If you've recently backed Steam Spy on Patreon, please note, that it might take around 15 minutes for your access rights to sync. In most cases you'll need to re-login on Steam Spy too.

Audience in 2 weeks:

Access restricted.

This feature is only available to users with special access rights. Sorry.

If you want to proceed, you need to register or log in first and then back Steam Spy on Patreon. Look for Indie or Pro pledge.

Don't forget to use the same email as on Steam Spy!

If you've recently backed Steam Spy on Patreon, please note, that it might take around 15 minutes for your access rights to sync. In most cases you'll need to re-login on Steam Spy too.

Peak daily concurrent players:

CCU data courtesy of SteamDB. Used with permission.

Hourly concurrent players:

Daily Twitch stats:

Hourly Twitch stats:

Followers over time

Access restricted.

This feature is only available to users with special access rights. Sorry.

If you want to proceed, you need to register or log in first and then back Steam Spy on Patreon. Look for Indie or Pro pledge.

Don't forget to use the same email as on Steam Spy!

If you've recently backed Steam Spy on Patreon, please note, that it might take around 15 minutes for your access rights to sync. In most cases you'll need to re-login on Steam Spy too.

Views for top 50 videos on YouTube for this game:

Games similar to this one:

# Game Release date
Price
Score rank
(Userscore / Metascore)
Owners
Players
Playtime (Median)
1 Pester Jan 25, 2013 $0.99N/A (N/A)100,000 .. 200,0000%00:00 (00:00)
2 Painters Guild Sep 1, 2015 $9.99N/A (N/A)20,000 .. 50,0000%00:00 (00:00)
3 Fingered Aug 18, 2015 $1.87N/A (N/A)50,000 .. 100,0000%00:00 (00:00)
4 Power of Love Jul 21, 2015 $0.99N/A (N/A)20,000 .. 50,0000%00:00 (00:00)
5 Aero's Quest Jun 8, 2015 $4.99N/A (N/A)0 .. 20,0000%00:00 (00:00)
6 Demon Hearts Aug 7, 2015 $3.99N/A (N/A)0 .. 20,0000%00:00 (00:00)
7 Red Goblin: Cursed Forest May 15, 2015 $4.99N/A (N/A)0 .. 20,0000%00:00 (00:00)
8 Botology Jun 24, 2015 $0.49N/A (N/A)50,000 .. 100,0007.69%04:28 (01:29)
9 Boss Monster Apr 27, 2016 N/AN/A (N/A)20,000 .. 50,0000%00:00 (00:00)
10 Farm Frenzy: Hurricane Season Apr 1, 2015 $6.99N/A (N/A)0 .. 20,0000%00:00 (00:00)
11 Unium Feb 3, 2015 $1.99N/A (N/A)0 .. 20,0000%00:00 (00:00)
12 Drizzlepath Mar 12, 2015 $1.99N/A (N/A)20,000 .. 50,0000%00:00 (00:00)
13 In Between Aug 21, 2015 $11.99N/A (N/A/68%)50,000 .. 100,0000%00:00 (00:00)
14 Stephen's Sausage Roll Apr 18, 2016 $29.99N/A (N/A/90%)50,000 .. 100,0000%00:00 (00:00)
15 Avalanche 2: Super Avalanche Jun 11, 2015 $4.99N/A (N/A)50,000 .. 100,0000%00:00 (00:00)
16 Dodge Mar 16, 2015 $1.99N/A (N/A)20,000 .. 50,0000%00:00 (00:00)
17 GunWorld Nov 16, 2014 $1.99N/A (N/A)0 .. 20,0000%00:00 (00:00)
18 Streets of Chaos Jan 23, 2015 N/AN/A (N/A)100,000 .. 200,0000%00:00 (00:00)
19 Astro Emporia Feb 2, 2015 $0.99N/A (N/A)50,000 .. 100,0000%00:00 (00:00)
20 Stay Alight Mar 2, 2015 $3.99N/A (N/A)50,000 .. 100,0000%00:00 (00:00)
21 Pixel Puzzles 2: Birds Feb 20, 2015 $4.99N/A (N/A)200,000 .. 500,0000%00:00 (00:00)
22 Bob Was Hungry Aug 19, 2015 $9.99N/A (N/A)50,000 .. 100,0000%00:00 (00:00)
23 Unhack Feb 20, 2014 $3.99N/A (N/A)20,000 .. 50,0000%00:00 (00:00)
24 Burst Mar 14, 2016 N/AN/A (N/A)20,000 .. 50,0000%00:00 (00:00)
25 The guard of dungeon Mar 7, 2017 $6.99N/A (N/A)20,000 .. 50,0000%00:00 (00:00)
26 Dungeon Painter Studio Feb 26, 2017 $14.99N/A (N/A)50,000 .. 100,0000%00:00 (00:00)
27 Winexy Jan 13, 2017 $0.49N/A (N/A)50,000 .. 100,0000%00:00 (00:00)
28 Brother Wings Jan 10, 2017 $0.99N/A (N/A)20,000 .. 50,0000%00:00 (00:00)
29 Golf for Workgroups Apr 6, 2017 $4.99N/A (N/A)0 .. 20,0000%00:00 (00:00)
30 Masky Dec 16, 2016 $0.99N/A (N/A)50,000 .. 100,0000%00:00 (00:00)
31 Machine Hunt May 15, 2017 $0.5N/A (N/A)50,000 .. 100,0000%00:00 (00:00)
32 Richie's Plank Experience Dec 13, 2017 $14.99N/A (N/A)50,000 .. 100,00020%01:04 (00:21)
33 The Dolls: Reborn May 25, 2016 $4.99N/A (N/A)20,000 .. 50,0000%00:00 (00:00)
34 Autumn Sep 23, 2014 $2.99N/A (N/A)100,000 .. 200,0000%00:00 (00:00)
35 Days of War: Definitive Edition Jan 30, 2020 $24.99N/A (N/A/60%)20,000 .. 50,0000%00:00 (00:00)
36 Death Goat Jun 7, 2016 N/AN/A (N/A)20,000 .. 50,0000%00:00 (00:00)
37 Party Saboteurs: After Party Mar 31, 2016 $9.99N/A (N/A)0 .. 20,0000%00:00 (00:00)
38 A grande bagunça espacial - The big space mess Apr 5, 2016 $0.99N/A (N/A)100,000 .. 200,0000%00:00 (00:00)
39 Sophie's Curse Mar 16, 2016 $4.99N/A (N/A)20,000 .. 50,0000%00:00 (00:00)
40 Narcissu 10th Anniversary Anthology Project Jan 27, 2016 $2.99N/A (N/A)50,000 .. 100,0000%00:00 (00:00)
41 Blitz Breaker Feb 2, 2016 $2.99N/A (N/A)0 .. 20,0000%00:00 (00:00)
42 Pro Gamer Manager Apr 28, 2016 $9.99N/A (N/A)50,000 .. 100,0000%00:00 (00:00)
43 Cibele Nov 2, 2015 $8.99N/A (N/A/71%)50,000 .. 100,0000%00:00 (00:00)
44 Lift It Jan 20, 2017 $4.99N/A (N/A)50,000 .. 100,0000%00:00 (00:00)
45 12 Labours of Hercules IV: Mother Nature (Platinum Edition) Dec 25, 2015 $2.99N/A (N/A)0 .. 20,0000%00:00 (00:00)
46 Robot vs Birds Zombies Jun 1, 2013 $0.99N/A (N/A)500,000 .. 1,000,0000%00:00 (00:00)
47 Grapple Mar 9, 2015 $6.99N/A (N/A)20,000 .. 50,0000%00:00 (00:00)
48 Sweezy Gunner May 6, 2014 $3.99N/A (N/A)20,000 .. 50,0000%00:00 (00:00)
49 Automation - The Car Company Tycoon Game Mar 12, 2015 $29.99N/A (N/A)200,000 .. 500,0000%00:00 (00:00)
50 Pressured Jul 18, 2014 $0.89N/A (N/A)200,000 .. 500,0000%00:00 (00:00)
51 Crazy Plant Shop Aug 4, 2014 $4.99N/A (N/A)20,000 .. 50,0000%00:00 (00:00)
52 Sokobond Jul 21, 2014 $9.99N/A (N/A/82%)20,000 .. 50,0000%00:00 (00:00)
53 Wildlife Park 3 May 12, 2014 $9.99N/A (N/A)100,000 .. 200,0000%00:00 (00:00)
54 Strata May 29, 2014 $7.99N/A (N/A)20,000 .. 50,0000%00:00 (00:00)
55 Diadra Empty Jul 21, 2015 $5.99N/A (N/A)0 .. 20,0000%00:00 (00:00)
56 On Rusty Trails Jun 13, 2016 $12.99N/A (N/A/77%)20,000 .. 50,0000%00:00 (00:00)
57 About Love, Hate and the other ones Dec 12, 2014 $6.99N/A (N/A)100,000 .. 200,0000%00:00 (00:00)
58 Tribloos 2 Jan 12, 2013 $4.99N/A (N/A)100,000 .. 200,0000%00:00 (00:00)
59 The Floor is Jelly May 30, 2014 $9.99N/A (N/A/83%)50,000 .. 100,0000%00:00 (00:00)
60 Aqua Kitty - Milk Mine Defender Feb 3, 2014 $6.99N/A (N/A)20,000 .. 50,0000%00:00 (00:00)
61 Divide By Sheep Jul 2, 2015 $4.99N/A (N/A/83%)2,000,000 .. 5,000,0000%00:00 (00:00)
62 Rigonauts Aug 7, 2012 $9.99N/A (N/A/60%)0 .. 20,0000%00:00 (00:00)
63 Luxor Evolved Mar 1, 2012 $9.99N/A (N/A)50,000 .. 100,0000%00:00 (00:00)
64 Puzzler World 2 Oct 24, 2011 $4.99N/A (N/A)50,000 .. 100,0000%00:00 (00:00)
65 Blocks That Matter Aug 19, 2011 $4.99N/A (N/A/72%)200,000 .. 500,0000%00:00 (00:00)
66 Governor of Poker 2 - Premium Edition Oct 11, 2010 $7.99N/A (N/A)20,000 .. 50,0000%00:00 (00:00)
67 Glowfish Sep 30, 2011 $9.99N/A (N/A)20,000 .. 50,0000%00:00 (00:00)
68 Luxor: 5th Passage Jan 25, 2011 $9.99N/A (N/A)20,000 .. 50,0000%00:00 (00:00)
69 Metal Drift Oct 22, 2009 $9.99N/A (N/A)20,000 .. 50,0000%00:00 (00:00)
70 REVOLVER360 RE:ACTOR Oct 24, 2014 $9.99N/A (N/A)50,000 .. 100,0000%00:00 (00:00)
71 Cubot Jan 8, 2015 $1.99N/A (N/A)20,000 .. 50,0000%00:00 (00:00)
72 Marble Duel: Sphere-Matching Tactical Fantasy Nov 12, 2015 $14.99N/A (N/A)50,000 .. 100,0000%00:00 (00:00)
73 Steam and Metal Feb 9, 2015 $4.99N/A (N/A)0 .. 20,0000%00:00 (00:00)
74 Shutshimi Aug 25, 2015 $4.99N/A (N/A)20,000 .. 50,0000%00:00 (00:00)
75 Vampires: Guide Them to Safety! Oct 22, 2014 $4.99N/A (N/A)0 .. 20,0000%00:00 (00:00)
76 Letter Quest: Grimm's Journey Nov 20, 2014 $7.99N/A (N/A/73%)100,000 .. 200,0000%00:00 (00:00)
77 Laserlife Sep 22, 2015 $9.99N/A (N/A)20,000 .. 50,0000%00:00 (00:00)
78 Meadowland Oct 22, 2014 $3.99N/A (N/A)0 .. 20,0000%00:00 (00:00)
79 Quantum Rush Champions Dec 4, 2014 $9.99N/A (N/A)20,000 .. 50,0000%00:00 (00:00)
80 A Good Snowman Is Hard To Build Feb 25, 2015 $9.99N/A (N/A)50,000 .. 100,0000%00:00 (00:00)
81 Bloop Reloaded Feb 6, 2015 FreeN/A (N/A)100,000 .. 200,0000%00:00 (00:00)
82 AaAaAA!!! - A Reckless Disregard for Gravity Sep 3, 2009 $9.99N/A (N/A/81%)100,000 .. 200,0000%00:00 (00:00)
83 Metrocide Oct 20, 2014 $12.99N/A (N/A/68%)50,000 .. 100,0000%00:00 (00:00)
84 LogiGun Aug 1, 2012 $4.99N/A (N/A)0 .. 20,0000%00:00 (00:00)
85 Super Lemonade Factory Mar 15, 2012 $0.99N/A (N/A)0 .. 20,0000%00:00 (00:00)
86 Point Perfect Jul 17, 2014 $4.99N/A (N/A)50,000 .. 100,0000%00:00 (00:00)
87 Hidden in Plain Sight Jul 16, 2014 $5.99N/A (N/A)0 .. 20,0000%00:00 (00:00)
88 Cyto Jul 10, 2014 $3.99N/A (N/A)20,000 .. 50,0000%00:00 (00:00)
89 The Blue Flamingo Nov 18, 2014 $4.99N/A (N/A/55%)100,000 .. 200,0000%00:00 (00:00)
90 Ichi Jun 12, 2014 $4.99N/A (N/A)50,000 .. 100,0000%00:00 (00:00)
91 Spy Chameleon - RGB Agent Jun 11, 2014 $4.99N/A (N/A)20,000 .. 50,0000%00:00 (00:00)
92 Swipecart May 8, 2014 $2.99N/A (N/A)50,000 .. 100,0000%00:00 (00:00)

Tags over time:

Access restricted.

This feature is only available to users with special access rights. Sorry.

If you want to proceed, you need to register or log in first and then back Steam Spy on Patreon. Look for Indie or Pro pledge.

Don't forget to use the same email as on Steam Spy!

If you've recently backed Steam Spy on Patreon, please note, that it might take around 15 minutes for your access rights to sync. In most cases you'll need to re-login on Steam Spy too.

Owners of this game also own:

Access restricted.

This feature is only available to users with special access rights. Sorry.

If you want to proceed, you need to register or log in first and then back Steam Spy on Patreon. Look for Indie or Pro pledge.

Don't forget to use the same email as on Steam Spy!

If you've recently backed Steam Spy on Patreon, please note, that it might take around 15 minutes for your access rights to sync. In most cases you'll need to re-login on Steam Spy too.

Playtime distribution:

Access restricted.

This feature is only available to users with special access rights. Sorry.

If you want to proceed, you need to register or log in first and then back Steam Spy on Patreon. Look for Indie or Pro pledge.

Don't forget to use the same email as on Steam Spy!

If you've recently backed Steam Spy on Patreon, please note, that it might take around 15 minutes for your access rights to sync. In most cases you'll need to re-login on Steam Spy too.

Playtime (2 weeks):

Access restricted.

This feature is only available to users with special access rights. Sorry.

If you want to proceed, you need to register or log in first and then back Steam Spy on Patreon. Look for Indie or Pro pledge.

Don't forget to use the same email as on Steam Spy!

If you've recently backed Steam Spy on Patreon, please note, that it might take around 15 minutes for your access rights to sync. In most cases you'll need to re-login on Steam Spy too.

User reviews:

Login required.

Please register or log in to see this information.